sensor_id;sensor_type;location;lat;lon;timestamp;P1;durP1;ratioP1;P2;durP2;ratioP2
18754;SDS011;35061;47.664;9.166;2023-01-09T00:01:26;8.55;;;6.65;;
18754;SDS011;35061;47.664;9.166;2023-01-09T00:04:00;7.72;;;5.82;;
18754;SDS011;35061;47.664;9.166;2023-01-09T00:06:28;6.00;;;5.40;;
18754;SDS011;35061;47.664;9.166;2023-01-09T00:08:56;8.90;;;6.30;;
18754;SDS011;35061;47.664;9.166;2023-01-09T00:11:23;6.85;;;6.25;;
18754;SDS011;35061;47.664;9.166;2023-01-09T00:13:51;7.32;;;5.95;;
18754;SDS011;35061;47.664;9.166;2023-01-09T00:16:19;6.47;;;5.80;;
18754;SDS011;35061;47.664;9.166;2023-01-09T00:18:47;6.65;;;5.93;;
18754;SDS011;35061;47.664;9.166;2023-01-09T00:21:15;7.80;;;6.25;;
18754;SDS011;35061;47.664;9.166;2023-01-09T00:23:43;7.60;;;5.95;;
18754;SDS011;35061;47.664;9.166;2023-01-09T00:26:14;6.85;;;5.57;;
18754;SDS011;35061;47.664;9.166;2023-01-09T00:28:44;8.10;;;5.85;;
18754;SDS011;35061;47.664;9.166;2023-01-09T00:31:13;7.00;;;6.28;;
18754;SDS011;35061;47.664;9.166;2023-01-09T00:33:45;7.22;;;6.53;;
18754;SDS011;35061;47.664;9.166;2023-01-09T00:36:26;8.75;;;7.10;;
18754;SDS011;35061;47.664;9.166;2023-01-09T00:38:53;7.32;;;6.60;;
18754;SDS011;35061;47.664;9.166;2023-01-09T00:41:39;7.43;;;6.32;;
18754;SDS011;35061;47.664;9.166;2023-01-09T00:44:15;8.23;;;6.45;;
18754;SDS011;35061;47.664;9.166;2023-01-09T00:46:50;7.80;;;6.50;;
18754;SDS011;35061;47.664;9.166;2023-01-09T00:49:21;7.65;;;5.87;;
18754;SDS011;35061;47.664;9.166;2023-01-09T00:51:49;6.82;;;5.47;;
18754;SDS011;35061;47.664;9.166;2023-01-09T00:54:19;7.07;;;6.35;;
18754;SDS011;35061;47.664;9.166;2023-01-09T00:56:48;7.35;;;5.95;;
18754;SDS011;35061;47.664;9.166;2023-01-09T00:59:16;6.85;;;5.70;;
18754;SDS011;35061;47.664;9.166;2023-01-09T01:01:44;8.43;;;6.62;;
18754;SDS011;35061;47.664;9.166;2023-01-09T01:04:12;7.00;;;5.37;;
18754;SDS011;35061;47.664;9.166;2023-01-09T01:06:58;9.55;;;5.78;;
18754;SDS011;35061;47.664;9.166;2023-01-09T01:09:44;6.40;;;5.68;;
18754;SDS011;35061;47.664;9.166;2023-01-09T01:12:12;6.15;;;5.55;;
18754;SDS011;35061;47.664;9.166;2023-01-09T01:14:40;4.93;;;4.43;;
18754;SDS011;35061;47.664;9.166;2023-01-09T01:17:08;5.65;;;4.10;;
18754;SDS011;35061;47.664;9.166;2023-01-09T01:19:35;3.03;;;2.60;;
18754;SDS011;35061;47.664;9.166;2023-01-09T01:22:03;1.50;;;1.37;;
18754;SDS011;35061;47.664;9.166;2023-01-09T01:24:31;0.93;;;0.93;;
18754;SDS011;35061;47.664;9.166;2023-01-09T01:26:59;1.10;;;0.80;;
18754;SDS011;35061;47.664;9.166;2023-01-09T01:29:27;1.20;;;1.10;;
18754;SDS011;35061;47.664;9.166;2023-01-09T01:31:55;1.02;;;0.88;;
18754;SDS011;35061;47.664;9.166;2023-01-09T01:34:23;0.80;;;0.73;;
18754;SDS011;35061;47.664;9.166;2023-01-09T01:36:51;0.47;;;0.47;;
18754;SDS011;35061;47.664;9.166;2023-01-09T01:39:18;0.50;;;0.50;;
18754;SDS011;35061;47.664;9.166;2023-01-09T01:41:46;0.55;;;0.55;;
18754;SDS011;35061;47.664;9.166;2023-01-09T01:47:19;0.65;;;0.60;;
18754;SDS011;35061;47.664;9.166;2023-01-09T01:50:18;0.65;;;0.65;;
18754;SDS011;35061;47.664;9.166;2023-01-09T01:55:50;0.50;;;0.50;;
18754;SDS011;35061;47.664;9.166;2023-01-09T01:58:20;1.02;;;0.60;;
18754;SDS011;35061;47.664;9.166;2023-01-09T02:00:48;0.65;;;0.65;;
18754;SDS011;35061;47.664;9.166;2023-01-09T02:03:16;0.50;;;0.50;;
18754;SDS011;35061;47.664;9.166;2023-01-09T02:05:46;0.50;;;0.50;;
18754;SDS011;35061;47.664;9.166;2023-01-09T02:08:15;0.52;;;0.52;;
18754;SDS011;35061;47.664;9.166;2023-01-09T02:10:44;0.85;;;0.85;;
18754;SDS011;35061;47.664;9.166;2023-01-09T02:13:12;0.57;;;0.57;;
18754;SDS011;35061;47.664;9.166;2023-01-09T02:15:50;0.50;;;0.50;;
18754;SDS011;35061;47.664;9.166;2023-01-09T02:24:07;0.82;;;0.68;;
18754;SDS011;35061;47.664;9.166;2023-01-09T02:38:16;0.50;;;0.50;;
18754;SDS011;35061;47.664;9.166;2023-01-09T02:41:15;0.60;;;0.60;;
18754;SDS011;35061;47.664;9.166;2023-01-09T02:44:00;0.50;;;0.50;;
18754;SDS011;35061;47.664;9.166;2023-01-09T02:46:38;0.68;;;0.60;;
18754;SDS011;35061;47.664;9.166;2023-01-09T02:49:05;0.68;;;0.50;;
18754;SDS011;35061;47.664;9.166;2023-01-09T02:54:47;0.50;;;0.43;;
18754;SDS011;35061;47.664;9.166;2023-01-09T02:57:41;0.70;;;0.68;;
18754;SDS011;35061;47.664;9.166;2023-01-09T03:03:08;0.40;;;0.40;;
18754;SDS011;35061;47.664;9.166;2023-01-09T03:06:12;0.50;;;0.50;;
18754;SDS011;35061;47.664;9.166;2023-01-09T03:09:05;1.42;;;0.60;;
18754;SDS011;35061;47.664;9.166;2023-01-09T03:11:41;1.17;;;0.52;;
18754;SDS011;35061;47.664;9.166;2023-01-09T03:14:15;0.40;;;0.40;;
18754;SDS011;35061;47.664;9.166;2023-01-09T03:16:47;0.40;;;0.40;;
18754;SDS011;35061;47.664;9.166;2023-01-09T03:19:20;0.40;;;0.40;;
18754;SDS011;35061;47.664;9.166;2023-01-09T03:21:50;0.37;;;0.37;;
18754;SDS011;35061;47.664;9.166;2023-01-09T03:24:19;0.40;;;0.40;;
18754;SDS011;35061;47.664;9.166;2023-01-09T03:26:47;0.50;;;0.50;;
18754;SDS011;35061;47.664;9.166;2023-01-09T03:29:15;0.62;;;0.40;;
18754;SDS011;35061;47.664;9.166;2023-01-09T03:31:42;0.73;;;0.52;;
18754;SDS011;35061;47.664;9.166;2023-01-09T03:34:10;0.50;;;0.30;;
18754;SDS011;35061;47.664;9.166;2023-01-09T03:36:38;0.30;;;0.30;;
18754;SDS011;35061;47.664;9.166;2023-01-09T03:39:06;0.30;;;0.30;;
18754;SDS011;35061;47.664;9.166;2023-01-09T03:41:33;0.47;;;0.47;;
18754;SDS011;35061;47.664;9.166;2023-01-09T03:44:01;0.40;;;0.40;;
18754;SDS011;35061;47.664;9.166;2023-01-09T03:46:29;0.32;;;0.32;;
18754;SDS011;35061;47.664;9.166;2023-01-09T03:48:56;1.52;;;0.45;;
18754;SDS011;35061;47.664;9.166;2023-01-09T03:51:24;0.95;;;0.40;;
18754;SDS011;35061;47.664;9.166;2023-01-09T03:53:52;0.30;;;0.30;;
18754;SDS011;35061;47.664;9.166;2023-01-09T03:56:20;0.30;;;0.30;;
18754;SDS011;35061;47.664;9.166;2023-01-09T03:58:47;0.30;;;0.30;;
18754;SDS011;35061;47.664;9.166;2023-01-09T04:01:16;0.60;;;0.60;;
18754;SDS011;35061;47.664;9.166;2023-01-09T04:03:44;0.40;;;0.40;;
18754;SDS011;35061;47.664;9.166;2023-01-09T04:06:11;0.52;;;0.52;;
18754;SDS011;35061;47.664;9.166;2023-01-09T04:08:39;0.50;;;0.50;;
18754;SDS011;35061;47.664;9.166;2023-01-09T04:11:07;0.40;;;0.40;;
18754;SDS011;35061;47.664;9.166;2023-01-09T04:13:35;0.30;;;0.30;;
18754;SDS011;35061;47.664;9.166;2023-01-09T04:16:04;0.30;;;0.30;;
18754;SDS011;35061;47.664;9.166;2023-01-09T04:18:32;0.62;;;0.40;;
18754;SDS011;35061;47.664;9.166;2023-01-09T04:21:00;0.32;;;0.32;;
18754;SDS011;35061;47.664;9.166;2023-01-09T04:23:27;0.37;;;0.37;;
18754;SDS011;35061;47.664;9.166;2023-01-09T04:25:55;0.40;;;0.40;;
18754;SDS011;35061;47.664;9.166;2023-01-09T04:28:23;0.30;;;0.30;;
18754;SDS011;35061;47.664;9.166;2023-01-09T04:30:50;0.37;;;0.30;;
18754;SDS011;35061;47.664;9.166;2023-01-09T04:33:18;0.30;;;0.30;;
18754;SDS011;35061;47.664;9.166;2023-01-09T04:35:46;0.22;;;0.22;;
18754;SDS011;35061;47.664;9.166;2023-01-09T04:38:14;0.20;;;0.20;;
18754;SDS011;35061;47.664;9.166;2023-01-09T04:40:41;0.20;;;0.20;;
18754;SDS011;35061;47.664;9.166;2023-01-09T04:43:09;0.30;;;0.30;;
18754;SDS011;35061;47.664;9.166;2023-01-09T04:45:37;0.30;;;0.30;;
18754;SDS011;35061;47.664;9.166;2023-01-09T04:48:05;0.77;;;0.50;;
18754;SDS011;35061;47.664;9.166;2023-01-09T04:50:32;0.30;;;0.30;;
18754;SDS011;35061;47.664;9.166;2023-01-09T04:53:00;0.20;;;0.20;;
18754;SDS011;35061;47.664;9.166;2023-01-09T04:55:28;0.35;;;0.35;;
18754;SDS011;35061;47.664;9.166;2023-01-09T04:57:55;0.35;;;0.35;;
18754;SDS011;35061;47.664;9.166;2023-01-09T05:00:23;0.30;;;0.30;;
18754;SDS011;35061;47.664;9.166;2023-01-09T05:02:51;0.20;;;0.20;;
18754;SDS011;35061;47.664;9.166;2023-01-09T05:05:19;0.43;;;0.30;;
18754;SDS011;35061;47.664;9.166;2023-01-09T05:07:46;0.30;;;0.30;;
18754;SDS011;35061;47.664;9.166;2023-01-09T05:10:14;0.40;;;0.40;;
18754;SDS011;35061;47.664;9.166;2023-01-09T05:12:42;0.35;;;0.30;;
18754;SDS011;35061;47.664;9.166;2023-01-09T05:15:10;0.37;;;0.35;;
18754;SDS011;35061;47.664;9.166;2023-01-09T05:17:38;0.32;;;0.30;;
18754;SDS011;35061;47.664;9.166;2023-01-09T05:20:06;0.50;;;0.50;;
18754;SDS011;35061;47.664;9.166;2023-01-09T05:22:34;0.52;;;0.50;;
18754;SDS011;35061;47.664;9.166;2023-01-09T05:25:02;0.40;;;0.32;;
18754;SDS011;35061;47.664;9.166;2023-01-09T05:27:29;0.40;;;0.40;;
18754;SDS011;35061;47.664;9.166;2023-01-09T05:29:57;0.52;;;0.40;;
18754;SDS011;35061;47.664;9.166;2023-01-09T05:32:25;0.37;;;0.37;;
18754;SDS011;35061;47.664;9.166;2023-01-09T05:34:52;0.30;;;0.30;;
18754;SDS011;35061;47.664;9.166;2023-01-09T05:37:20;0.30;;;0.30;;
18754;SDS011;35061;47.664;9.166;2023-01-09T05:39:48;0.43;;;0.32;;
18754;SDS011;35061;47.664;9.166;2023-01-09T05:42:16;0.60;;;0.30;;
18754;SDS011;35061;47.664;9.166;2023-01-09T05:44:43;0.73;;;0.50;;
18754;SDS011;35061;47.664;9.166;2023-01-09T05:47:11;0.30;;;0.30;;
18754;SDS011;35061;47.664;9.166;2023-01-09T05:49:39;0.30;;;0.30;;
18754;SDS011;35061;47.664;9.166;2023-01-09T05:52:06;0.95;;;0.40;;
18754;SDS011;35061;47.664;9.166;2023-01-09T05:54:34;0.50;;;0.50;;
18754;SDS011;35061;47.664;9.166;2023-01-09T05:57:02;0.82;;;0.50;;
18754;SDS011;35061;47.664;9.166;2023-01-09T05:59:30;0.40;;;0.40;;
18754;SDS011;35061;47.664;9.166;2023-01-09T06:01:57;0.40;;;0.40;;
18754;SDS011;35061;47.664;9.166;2023-01-09T06:04:25;1.23;;;0.43;;
18754;SDS011;35061;47.664;9.166;2023-01-09T06:06:56;1.27;;;0.50;;
18754;SDS011;35061;47.664;9.166;2023-01-09T06:09:23;0.60;;;0.60;;
18754;SDS011;35061;47.664;9.166;2023-01-09T06:11:51;0.90;;;0.47;;
18754;SDS011;35061;47.664;9.166;2023-01-09T06:14:21;2.30;;;0.60;;
18754;SDS011;35061;47.664;9.166;2023-01-09T06:16:48;0.60;;;0.60;;
18754;SDS011;35061;47.664;9.166;2023-01-09T06:19:17;0.55;;;0.40;;
18754;SDS011;35061;47.664;9.166;2023-01-09T06:21:45;0.45;;;0.40;;
18754;SDS011;35061;47.664;9.166;2023-01-09T06:24:12;0.77;;;0.60;;
18754;SDS011;35061;47.664;9.166;2023-01-09T06:26:40;0.60;;;0.50;;
18754;SDS011;35061;47.664;9.166;2023-01-09T06:29:08;1.40;;;0.60;;
18754;SDS011;35061;47.664;9.166;2023-01-09T06:31:35;1.62;;;0.80;;
18754;SDS011;35061;47.664;9.166;2023-01-09T06:34:03;1.25;;;0.80;;
18754;SDS011;35061;47.664;9.166;2023-01-09T06:36:31;1.70;;;0.95;;
18754;SDS011;35061;47.664;9.166;2023-01-09T06:38:59;1.75;;;0.62;;
18754;SDS011;35061;47.664;9.166;2023-01-09T06:41:26;0.75;;;0.50;;
18754;SDS011;35061;47.664;9.166;2023-01-09T06:43:54;0.70;;;0.55;;
18754;SDS011;35061;47.664;9.166;2023-01-09T06:46:22;2.25;;;0.82;;
18754;SDS011;35061;47.664;9.166;2023-01-09T06:48:49;1.25;;;0.60;;
18754;SDS011;35061;47.664;9.166;2023-01-09T06:51:17;1.95;;;0.52;;
18754;SDS011;35061;47.664;9.166;2023-01-09T06:53:45;1.60;;;0.60;;
18754;SDS011;35061;47.664;9.166;2023-01-09T06:56:13;1.62;;;0.80;;
18754;SDS011;35061;47.664;9.166;2023-01-09T06:58:40;1.85;;;0.60;;
18754;SDS011;35061;47.664;9.166;2023-01-09T07:01:08;2.87;;;0.68;;
18754;SDS011;35061;47.664;9.166;2023-01-09T07:03:36;0.65;;;0.60;;
18754;SDS011;35061;47.664;9.166;2023-01-09T07:06:04;3.22;;;0.60;;
18754;SDS011;35061;47.664;9.166;2023-01-09T07:08:33;0.55;;;0.50;;
18754;SDS011;35061;47.664;9.166;2023-01-09T07:11:01;1.52;;;0.80;;
18754;SDS011;35061;47.664;9.166;2023-01-09T07:13:28;0.60;;;0.60;;
18754;SDS011;35061;47.664;9.166;2023-01-09T07:15:56;0.73;;;0.73;;
18754;SDS011;35061;47.664;9.166;2023-01-09T07:18:24;1.20;;;0.55;;
18754;SDS011;35061;47.664;9.166;2023-01-09T07:20:52;2.00;;;0.85;;
18754;SDS011;35061;47.664;9.166;2023-01-09T07:23:19;0.50;;;0.50;;
18754;SDS011;35061;47.664;9.166;2023-01-09T07:25:47;3.28;;;0.70;;
18754;SDS011;35061;47.664;9.166;2023-01-09T07:28:17;0.77;;;0.70;;
18754;SDS011;35061;47.664;9.166;2023-01-09T07:30:44;0.75;;;0.55;;
18754;SDS011;35061;47.664;9.166;2023-01-09T07:33:12;0.57;;;0.50;;
18754;SDS011;35061;47.664;9.166;2023-01-09T07:35:40;1.52;;;0.70;;
18754;SDS011;35061;47.664;9.166;2023-01-09T07:38:08;0.73;;;0.62;;
18754;SDS011;35061;47.664;9.166;2023-01-09T07:40:35;0.65;;;0.50;;
18754;SDS011;35061;47.664;9.166;2023-01-09T07:43:03;0.37;;;0.37;;
18754;SDS011;35061;47.664;9.166;2023-01-09T07:45:31;1.80;;;0.60;;
18754;SDS011;35061;47.664;9.166;2023-01-09T07:47:59;0.43;;;0.40;;
18754;SDS011;35061;47.664;9.166;2023-01-09T07:50:26;0.50;;;0.50;;
18754;SDS011;35061;47.664;9.166;2023-01-09T07:52:54;0.50;;;0.50;;
18754;SDS011;35061;47.664;9.166;2023-01-09T07:55:22;0.62;;;0.50;;
18754;SDS011;35061;47.664;9.166;2023-01-09T07:57:50;1.95;;;0.77;;
18754;SDS011;35061;47.664;9.166;2023-01-09T08:00:18;2.62;;;0.93;;
18754;SDS011;35061;47.664;9.166;2023-01-09T08:02:50;0.98;;;0.60;;
18754;SDS011;35061;47.664;9.166;2023-01-09T08:05:19;2.17;;;0.75;;
18754;SDS011;35061;47.664;9.166;2023-01-09T08:07:48;0.60;;;0.60;;
18754;SDS011;35061;47.664;9.166;2023-01-09T08:10:18;1.05;;;0.70;;
18754;SDS011;35061;47.664;9.166;2023-01-09T08:12:46;1.10;;;0.85;;
18754;SDS011;35061;47.664;9.166;2023-01-09T08:15:15;0.95;;;0.70;;
18754;SDS011;35061;47.664;9.166;2023-01-09T08:17:43;1.85;;;0.80;;
18754;SDS011;35061;47.664;9.166;2023-01-09T08:20:13;1.17;;;0.85;;
18754;SDS011;35061;47.664;9.166;2023-01-09T08:22:44;1.30;;;0.90;;
18754;SDS011;35061;47.664;9.166;2023-01-09T08:25:16;1.87;;;0.93;;
18754;SDS011;35061;47.664;9.166;2023-01-09T08:27:44;1.52;;;1.12;;
18754;SDS011;35061;47.664;9.166;2023-01-09T08:30:12;1.25;;;0.98;;
18754;SDS011;35061;47.664;9.166;2023-01-09T08:32:41;2.20;;;0.70;;
18754;SDS011;35061;47.664;9.166;2023-01-09T08:35:09;3.50;;;1.10;;
18754;SDS011;35061;47.664;9.166;2023-01-09T08:37:36;5.03;;;0.80;;
18754;SDS011;35061;47.664;9.166;2023-01-09T08:40:04;1.30;;;0.70;;
18754;SDS011;35061;47.664;9.166;2023-01-09T08:42:32;1.52;;;0.70;;
18754;SDS011;35061;47.664;9.166;2023-01-09T08:45:19;0.77;;;0.60;;
18754;SDS011;35061;47.664;9.166;2023-01-09T08:48:05;1.55;;;0.50;;
18754;SDS011;35061;47.664;9.166;2023-01-09T08:50:34;2.15;;;0.80;;
18754;SDS011;35061;47.664;9.166;2023-01-09T08:53:01;2.22;;;0.65;;
18754;SDS011;35061;47.664;9.166;2023-01-09T08:55:29;1.92;;;1.02;;
18754;SDS011;35061;47.664;9.166;2023-01-09T08:57:57;0.82;;;0.68;;
18754;SDS011;35061;47.664;9.166;2023-01-09T09:00:25;0.62;;;0.45;;
18754;SDS011;35061;47.664;9.166;2023-01-09T09:02:54;1.33;;;0.40;;
18754;SDS011;35061;47.664;9.166;2023-01-09T09:05:24;1.10;;;0.80;;
18754;SDS011;35061;47.664;9.166;2023-01-09T09:07:53;2.22;;;0.80;;
18754;SDS011;35061;47.664;9.166;2023-01-09T09:10:23;1.10;;;0.65;;
18754;SDS011;35061;47.664;9.166;2023-01-09T09:12:55;0.93;;;0.77;;
18754;SDS011;35061;47.664;9.166;2023-01-09T09:15:25;2.28;;;0.85;;
18754;SDS011;35061;47.664;9.166;2023-01-09T09:17:54;1.62;;;1.02;;
18754;SDS011;35061;47.664;9.166;2023-01-09T09:20:24;0.93;;;0.85;;
18754;SDS011;35061;47.664;9.166;2023-01-09T09:22:54;1.50;;;0.73;;
18754;SDS011;35061;47.664;9.166;2023-01-09T09:25:22;2.60;;;0.90;;
18754;SDS011;35061;47.664;9.166;2023-01-09T09:27:49;0.95;;;0.85;;
18754;SDS011;35061;47.664;9.166;2023-01-09T09:30:18;1.58;;;0.60;;
18754;SDS011;35061;47.664;9.166;2023-01-09T09:32:46;2.25;;;0.75;;
18754;SDS011;35061;47.664;9.166;2023-01-09T09:35:14;0.85;;;0.50;;
18754;SDS011;35061;47.664;9.166;2023-01-09T09:37:53;0.80;;;0.50;;
18754;SDS011;35061;47.664;9.166;2023-01-09T09:40:29;1.45;;;0.68;;
18754;SDS011;35061;47.664;9.166;2023-01-09T09:48:56;1.45;;;0.60;;
18754;SDS011;35061;47.664;9.166;2023-01-09T09:54:19;3.12;;;0.60;;
18754;SDS011;35061;47.664;9.166;2023-01-09T09:56:54;1.17;;;0.68;;
18754;SDS011;35061;47.664;9.166;2023-01-09T09:59:25;0.85;;;0.60;;
18754;SDS011;35061;47.664;9.166;2023-01-09T10:02:01;0.98;;;0.70;;
18754;SDS011;35061;47.664;9.166;2023-01-09T10:04:39;0.77;;;0.70;;
18754;SDS011;35061;47.664;9.166;2023-01-09T10:07:19;0.82;;;0.70;;
18754;SDS011;35061;47.664;9.166;2023-01-09T10:09:54;3.37;;;0.70;;
18754;SDS011;35061;47.664;9.166;2023-01-09T10:12:27;2.00;;;0.45;;
18754;SDS011;35061;47.664;9.166;2023-01-09T10:14:58;0.85;;;0.50;;
18754;SDS011;35061;47.664;9.166;2023-01-09T10:17:30;2.67;;;0.80;;
18754;SDS011;35061;47.664;9.166;2023-01-09T10:30:58;1.70;;;0.60;;
18754;SDS011;35061;47.664;9.166;2023-01-09T10:39:05;2.30;;;0.65;;
18754;SDS011;35061;47.664;9.166;2023-01-09T10:41:39;0.98;;;0.70;;
18754;SDS011;35061;47.664;9.166;2023-01-09T10:44:39;1.95;;;0.60;;
18754;SDS011;35061;47.664;9.166;2023-01-09T10:47:21;0.82;;;0.55;;
18754;SDS011;35061;47.664;9.166;2023-01-09T10:49:54;0.88;;;0.62;;
18754;SDS011;35061;47.664;9.166;2023-01-09T10:52:33;0.93;;;0.60;;
18754;SDS011;35061;47.664;9.166;2023-01-09T10:55:17;1.05;;;0.70;;
18754;SDS011;35061;47.664;9.166;2023-01-09T10:57:51;0.73;;;0.60;;
18754;SDS011;35061;47.664;9.166;2023-01-09T11:00:23;1.65;;;0.75;;
18754;SDS011;35061;47.664;9.166;2023-01-09T11:02:51;1.33;;;0.68;;
18754;SDS011;35061;47.664;9.166;2023-01-09T11:05:25;1.27;;;0.80;;
18754;SDS011;35061;47.664;9.166;2023-01-09T11:10:44;0.93;;;0.60;;
18754;SDS011;35061;47.664;9.166;2023-01-09T11:13:22;0.70;;;0.60;;
18754;SDS011;35061;47.664;9.166;2023-01-09T11:18:34;1.17;;;0.60;;
18754;SDS011;35061;47.664;9.166;2023-01-09T11:21:26;1.48;;;0.80;;
18754;SDS011;35061;47.664;9.166;2023-01-09T11:26:45;1.35;;;0.60;;
18754;SDS011;35061;47.664;9.166;2023-01-09T11:29:18;2.28;;;0.70;;
18754;SDS011;35061;47.664;9.166;2023-01-09T11:31:53;0.70;;;0.70;;
18754;SDS011;35061;47.664;9.166;2023-01-09T11:34:24;0.73;;;0.52;;
18754;SDS011;35061;47.664;9.166;2023-01-09T11:37:01;1.92;;;0.70;;
18754;SDS011;35061;47.664;9.166;2023-01-09T11:39:43;1.27;;;0.80;;
18754;SDS011;35061;47.664;9.166;2023-01-09T11:42:18;1.73;;;0.73;;
18754;SDS011;35061;47.664;9.166;2023-01-09T11:45:14;1.40;;;0.50;;
18754;SDS011;35061;47.664;9.166;2023-01-09T11:47:44;2.58;;;1.00;;
18754;SDS011;35061;47.664;9.166;2023-01-09T11:50:22;1.35;;;0.50;;
18754;SDS011;35061;47.664;9.166;2023-01-09T11:53:14;0.77;;;0.50;;
18754;SDS011;35061;47.664;9.166;2023-01-09T11:55:44;1.77;;;0.82;;
18754;SDS011;35061;47.664;9.166;2023-01-09T11:58:17;1.50;;;0.62;;
18754;SDS011;35061;47.664;9.166;2023-01-09T12:06:39;1.02;;;0.50;;
18754;SDS011;35061;47.664;9.166;2023-01-09T12:12:20;1.23;;;0.68;;
18754;SDS011;35061;47.664;9.166;2023-01-09T12:14:55;2.00;;;0.70;;
18754;SDS011;35061;47.664;9.166;2023-01-09T12:18:09;1.77;;;0.82;;
18754;SDS011;35061;47.664;9.166;2023-01-09T12:20:56;2.35;;;0.70;;
18754;SDS011;35061;47.664;9.166;2023-01-09T12:23:39;2.45;;;0.80;;
18754;SDS011;35061;47.664;9.166;2023-01-09T12:26:15;2.12;;;0.98;;
18754;SDS011;35061;47.664;9.166;2023-01-09T12:33:53;4.18;;;1.45;;
18754;SDS011;35061;47.664;9.166;2023-01-09T12:44:47;2.97;;;0.60;;
18754;SDS011;35061;47.664;9.166;2023-01-09T12:55:45;1.70;;;0.50;;
18754;SDS011;35061;47.664;9.166;2023-01-09T12:58:31;1.40;;;0.70;;
18754;SDS011;35061;47.664;9.166;2023-01-09T13:01:07;1.58;;;0.65;;
18754;SDS011;35061;47.664;9.166;2023-01-09T13:04:11;1.52;;;0.70;;
18754;SDS011;35061;47.664;9.166;2023-01-09T13:06:43;1.00;;;0.60;;
18754;SDS011;35061;47.664;9.166;2023-01-09T13:17:06;1.20;;;0.80;;
18754;SDS011;35061;47.664;9.166;2023-01-09T13:19:44;1.08;;;1.05;;
18754;SDS011;35061;47.664;9.166;2023-01-09T13:22:12;0.55;;;0.55;;
18754;SDS011;35061;47.664;9.166;2023-01-09T13:24:48;1.58;;;0.60;;
18754;SDS011;35061;47.664;9.166;2023-01-09T13:27:35;0.52;;;0.52;;
18754;SDS011;35061;47.664;9.166;2023-01-09T13:40:06;1.35;;;0.40;;
18754;SDS011;35061;47.664;9.166;2023-01-09T13:45:25;1.42;;;0.45;;
18754;SDS011;35061;47.664;9.166;2023-01-09T13:50:35;0.77;;;0.60;;
18754;SDS011;35061;47.664;9.166;2023-01-09T14:01:03;1.00;;;0.50;;
18754;SDS011;35061;47.664;9.166;2023-01-09T14:04:35;0.65;;;0.50;;
18754;SDS011;35061;47.664;9.166;2023-01-09T14:07:01;1.08;;;0.68;;
18754;SDS011;35061;47.664;9.166;2023-01-09T14:09:50;1.70;;;0.88;;
18754;SDS011;35061;47.664;9.166;2023-01-09T14:12:21;1.90;;;0.68;;
18754;SDS011;35061;47.664;9.166;2023-01-09T14:14:51;0.55;;;0.55;;
18754;SDS011;35061;47.664;9.166;2023-01-09T14:17:26;0.80;;;0.50;;
18754;SDS011;35061;47.664;9.166;2023-01-09T14:19:59;1.23;;;0.80;;
18754;SDS011;35061;47.664;9.166;2023-01-09T14:22:31;0.60;;;0.60;;
18754;SDS011;35061;47.664;9.166;2023-01-09T14:25:22;1.55;;;0.75;;
18754;SDS011;35061;47.664;9.166;2023-01-09T14:38:42;1.95;;;0.80;;
18754;SDS011;35061;47.664;9.166;2023-01-09T14:41:35;0.90;;;0.62;;
18754;SDS011;35061;47.664;9.166;2023-01-09T14:45:00;0.73;;;0.60;;
18754;SDS011;35061;47.664;9.166;2023-01-09T14:47:24;2.33;;;1.02;;
18754;SDS011;35061;47.664;9.166;2023-01-09T14:52:45;0.82;;;0.75;;
18754;SDS011;35061;47.664;9.166;2023-01-09T15:03:38;1.52;;;0.82;;
18754;SDS011;35061;47.664;9.166;2023-01-09T15:06:12;1.12;;;0.60;;
18754;SDS011;35061;47.664;9.166;2023-01-09T15:08:43;2.87;;;1.10;;
18754;SDS011;35061;47.664;9.166;2023-01-09T15:11:12;2.37;;;0.62;;
18754;SDS011;35061;47.664;9.166;2023-01-09T15:13:41;0.68;;;0.60;;
18754;SDS011;35061;47.664;9.166;2023-01-09T15:16:21;2.28;;;1.00;;
18754;SDS011;35061;47.664;9.166;2023-01-09T15:18:53;2.92;;;0.75;;
18754;SDS011;35061;47.664;9.166;2023-01-09T15:21:25;1.75;;;0.70;;
18754;SDS011;35061;47.664;9.166;2023-01-09T15:24:10;1.27;;;0.60;;
18754;SDS011;35061;47.664;9.166;2023-01-09T15:26:58;0.73;;;0.60;;
18754;SDS011;35061;47.664;9.166;2023-01-09T15:29:29;2.37;;;0.80;;
18754;SDS011;35061;47.664;9.166;2023-01-09T15:31:59;0.95;;;0.60;;
18754;SDS011;35061;47.664;9.166;2023-01-09T15:34:34;2.40;;;0.80;;
18754;SDS011;35061;47.664;9.166;2023-01-09T15:37:02;2.58;;;1.30;;
18754;SDS011;35061;47.664;9.166;2023-01-09T15:39:31;1.50;;;0.88;;
18754;SDS011;35061;47.664;9.166;2023-01-09T15:42:03;1.65;;;0.90;;
18754;SDS011;35061;47.664;9.166;2023-01-09T15:44:49;1.10;;;0.80;;
18754;SDS011;35061;47.664;9.166;2023-01-09T15:47:21;3.50;;;1.10;;
18754;SDS011;35061;47.664;9.166;2023-01-09T15:49:50;1.15;;;0.85;;
18754;SDS011;35061;47.664;9.166;2023-01-09T15:52:19;1.95;;;0.82;;
18754;SDS011;35061;47.664;9.166;2023-01-09T15:54:48;3.53;;;0.98;;
18754;SDS011;35061;47.664;9.166;2023-01-09T15:59:55;1.30;;;0.73;;
18754;SDS011;35061;47.664;9.166;2023-01-09T16:02:43;1.80;;;0.60;;
18754;SDS011;35061;47.664;9.166;2023-01-09T16:05:30;2.00;;;0.90;;
18754;SDS011;35061;47.664;9.166;2023-01-09T16:07:59;2.22;;;1.42;;
18754;SDS011;35061;47.664;9.166;2023-01-09T16:10:29;2.20;;;1.10;;
18754;SDS011;35061;47.664;9.166;2023-01-09T16:13:01;3.17;;;1.42;;
18754;SDS011;35061;47.664;9.166;2023-01-09T16:15:31;1.33;;;0.98;;
18754;SDS011;35061;47.664;9.166;2023-01-09T16:20:41;2.95;;;1.60;;
18754;SDS011;35061;47.664;9.166;2023-01-09T16:23:28;2.33;;;1.37;;
18754;SDS011;35061;47.664;9.166;2023-01-09T16:28:38;1.20;;;1.10;;
18754;SDS011;35061;47.664;9.166;2023-01-09T16:34:06;1.10;;;0.95;;
18754;SDS011;35061;47.664;9.166;2023-01-09T16:36:38;2.45;;;1.17;;
18754;SDS011;35061;47.664;9.166;2023-01-09T16:39:08;1.50;;;0.98;;
18754;SDS011;35061;47.664;9.166;2023-01-09T16:41:43;1.12;;;0.57;;
18754;SDS011;35061;47.664;9.166;2023-01-09T16:44:29;0.98;;;0.90;;
18754;SDS011;35061;47.664;9.166;2023-01-09T16:46:57;1.30;;;0.80;;
18754;SDS011;35061;47.664;9.166;2023-01-09T16:49:25;2.67;;;0.77;;
18754;SDS011;35061;47.664;9.166;2023-01-09T16:51:54;0.73;;;0.60;;
18754;SDS011;35061;47.664;9.166;2023-01-09T16:54:23;2.08;;;1.23;;
18754;SDS011;35061;47.664;9.166;2023-01-09T16:56:51;1.65;;;0.60;;
18754;SDS011;35061;47.664;9.166;2023-01-09T16:59:21;0.52;;;0.43;;
18754;SDS011;35061;47.664;9.166;2023-01-09T17:01:51;1.25;;;0.85;;
18754;SDS011;35061;47.664;9.166;2023-01-09T17:04:20;0.40;;;0.40;;
18754;SDS011;35061;47.664;9.166;2023-01-09T17:06:50;0.80;;;0.45;;
18754;SDS011;35061;47.664;9.166;2023-01-09T17:09:18;0.60;;;0.60;;
18754;SDS011;35061;47.664;9.166;2023-01-09T17:11:52;0.77;;;0.70;;
18754;SDS011;35061;47.664;9.166;2023-01-09T17:14:20;2.10;;;0.60;;
18754;SDS011;35061;47.664;9.166;2023-01-09T17:16:47;0.95;;;0.52;;
18754;SDS011;35061;47.664;9.166;2023-01-09T17:19:16;2.80;;;1.15;;
18754;SDS011;35061;47.664;9.166;2023-01-09T17:21:46;0.80;;;0.80;;
18754;SDS011;35061;47.664;9.166;2023-01-09T17:24:13;0.90;;;0.85;;
18754;SDS011;35061;47.664;9.166;2023-01-09T17:27:00;2.70;;;0.82;;
18754;SDS011;35061;47.664;9.166;2023-01-09T17:29:47;1.00;;;0.82;;
18754;SDS011;35061;47.664;9.166;2023-01-09T17:32:15;1.05;;;0.98;;
18754;SDS011;35061;47.664;9.166;2023-01-09T17:34:44;2.05;;;0.80;;
18754;SDS011;35061;47.664;9.166;2023-01-09T17:37:12;1.48;;;1.15;;
18754;SDS011;35061;47.664;9.166;2023-01-09T17:39:42;1.35;;;0.95;;
18754;SDS011;35061;47.664;9.166;2023-01-09T17:42:10;2.03;;;1.30;;
18754;SDS011;35061;47.664;9.166;2023-01-09T17:44:38;1.50;;;1.02;;
18754;SDS011;35061;47.664;9.166;2023-01-09T17:47:09;2.97;;;1.10;;
18754;SDS011;35061;47.664;9.166;2023-01-09T17:49:41;1.00;;;0.90;;
18754;SDS011;35061;47.664;9.166;2023-01-09T17:52:09;1.60;;;0.80;;
18754;SDS011;35061;47.664;9.166;2023-01-09T17:54:37;2.22;;;1.17;;